sensor_id;sensor_type;location;lat;lon;timestamp;pressure;altitude;pressure_sealevel;temperature;humidity
49949;BME280;35840;45.982;8.890;2022-08-16T00:02:31;97737.25;;;20.60;62.01
49949;BME280;35840;45.982;8.890;2022-08-16T00:04:59;97734.28;;;20.63;61.95
49949;BME280;35840;45.982;8.890;2022-08-16T00:07:27;97736.03;;;20.39;62.68
49949;BME280;35840;45.982;8.890;2022-08-16T00:09:59;97734.94;;;20.57;62.71
49949;BME280;35840;45.982;8.890;2022-08-16T00:12:27;97728.72;;;20.66;61.98
49949;BME280;35840;45.982;8.890;2022-08-16T00:14:58;97742.41;;;20.68;62.58
49949;BME280;35840;45.982;8.890;2022-08-16T00:17:26;97746.56;;;20.54;62.62
49949;BME280;35840;45.982;8.890;2022-08-16T00:19:54;97737.28;;;20.20;63.11
49949;BME280;35840;45.982;8.890;2022-08-16T00:22:23;97747.56;;;20.13;63.31
49949;BME280;35840;45.982;8.890;2022-08-16T00:24:54;97750.31;;;20.20;63.06
49949;BME280;35840;45.982;8.890;2022-08-16T00:27:21;97749.47;;;20.28;62.88
49949;BME280;35840;45.982;8.890;2022-08-16T00:29:49;97749.09;;;20.39;63.04
49949;BME280;35840;45.982;8.890;2022-08-16T00:32:40;97752.44;;;20.56;62.41
49949;BME280;35840;45.982;8.890;2022-08-16T00:35:09;97754.19;;;20.64;62.39
49949;BME280;35840;45.982;8.890;2022-08-16T00:37:43;97755.25;;;20.78;61.77
49949;BME280;35840;45.982;8.890;2022-08-16T00:40:34;97760.91;;;20.90;61.02
49949;BME280;35840;45.982;8.890;2022-08-16T00:43:21;97765.50;;;20.88;60.96
49949;BME280;35840;45.982;8.890;2022-08-16T00:46:04;97771.13;;;20.76;61.56
49949;BME280;35840;45.982;8.890;2022-08-16T00:48:53;97765.66;;;20.55;62.03
49949;BME280;35840;45.982;8.890;2022-08-16T00:51:24;97771.25;;;20.43;62.12
49949;BME280;35840;45.982;8.890;2022-08-16T00:53:55;97765.91;;;20.37;62.20
49949;BME280;35840;45.982;8.890;2022-08-16T00:56:25;97768.41;;;20.30;62.13
49949;BME280;35840;45.982;8.890;2022-08-16T00:59:14;97768.13;;;20.08;62.93
49949;BME280;35840;45.982;8.890;2022-08-16T01:01:42;97774.59;;;20.29;62.56
49949;BME280;35840;45.982;8.890;2022-08-16T01:04:11;97772.53;;;20.16;62.89
49949;BME280;35840;45.982;8.890;2022-08-16T01:07:01;97773.63;;;20.30;62.58
49949;BME280;35840;45.982;8.890;2022-08-16T01:09:36;97775.91;;;20.25;62.34
49949;BME280;35840;45.982;8.890;2022-08-16T01:12:09;97770.84;;;20.32;62.56
49949;BME280;35840;45.982;8.890;2022-08-16T01:14:55;97774.25;;;20.32;62.56
49949;BME280;35840;45.982;8.890;2022-08-16T01:17:25;97778.94;;;20.37;62.71
49949;BME280;35840;45.982;8.890;2022-08-16T01:20:04;97785.94;;;20.44;62.26
49949;BME280;35840;45.982;8.890;2022-08-16T01:22:56;97785.78;;;20.46;61.52
49949;BME280;35840;45.982;8.890;2022-08-16T01:25:30;97793.44;;;20.47;61.23
49949;BME280;35840;45.982;8.890;2022-08-16T01:28:05;97781.59;;;20.28;61.69
49949;BME280;35840;45.982;8.890;2022-08-16T01:30:37;97790.53;;;20.34;61.97
49949;BME280;35840;45.982;8.890;2022-08-16T01:33:16;97785.31;;;20.34;61.87
49949;BME280;35840;45.982;8.890;2022-08-16T01:35:58;97797.13;;;20.22;61.86
49949;BME280;35840;45.982;8.890;2022-08-16T01:38:28;97793.84;;;20.28;61.96
49949;BME280;35840;45.982;8.890;2022-08-16T01:43:31;97793.66;;;20.29;62.18
49949;BME280;35840;45.982;8.890;2022-08-16T01:46:02;97785.50;;;20.33;62.01
49949;BME280;35840;45.982;8.890;2022-08-16T01:49:01;97796.75;;;20.41;61.32
49949;BME280;35840;45.982;8.890;2022-08-16T01:51:30;97801.31;;;20.39;61.76
49949;BME280;35840;45.982;8.890;2022-08-16T01:53:58;97798.72;;;20.31;61.97
49949;BME280;35840;45.982;8.890;2022-08-16T01:56:29;97778.53;;;20.17;61.39
49949;BME280;35840;45.982;8.890;2022-08-16T01:58:59;97800.69;;;20.29;61.61
49949;BME280;35840;45.982;8.890;2022-08-16T02:01:27;97800.00;;;20.35;61.40
49949;BME280;35840;45.982;8.890;2022-08-16T02:03:56;97800.56;;;20.14;61.97
49949;BME280;35840;45.982;8.890;2022-08-16T02:06:38;97807.94;;;20.02;62.26
49949;BME280;35840;45.982;8.890;2022-08-16T02:09:15;97802.06;;;20.00;61.96
49949;BME280;35840;45.982;8.890;2022-08-16T02:11:53;97811.16;;;20.21;61.59
49949;BME280;35840;45.982;8.890;2022-08-16T02:14:23;97807.22;;;20.25;61.41
49949;BME280;35840;45.982;8.890;2022-08-16T02:16:56;97800.72;;;20.12;61.57
49949;BME280;35840;45.982;8.890;2022-08-16T02:19:25;97785.59;;;20.00;61.91
49949;BME280;35840;45.982;8.890;2022-08-16T02:22:16;97791.13;;;20.13;61.72
49949;BME280;35840;45.982;8.890;2022-08-16T02:25:06;97795.72;;;19.94;62.60
49949;BME280;35840;45.982;8.890;2022-08-16T02:27:35;97788.72;;;19.70;62.98
49949;BME280;35840;45.982;8.890;2022-08-16T02:30:05;97805.38;;;19.77;62.87
49949;BME280;35840;45.982;8.890;2022-08-16T02:32:33;97799.00;;;19.72;63.10
49949;BME280;35840;45.982;8.890;2022-08-16T02:35:19;97802.63;;;19.79;62.52
49949;BME280;35840;45.982;8.890;2022-08-16T02:37:49;97801.28;;;19.83;62.21
49949;BME280;35840;45.982;8.890;2022-08-16T02:40:20;97802.75;;;19.86;62.29
49949;BME280;35840;45.982;8.890;2022-08-16T02:42:49;97803.88;;;19.91;62.21
49949;BME280;35840;45.982;8.890;2022-08-16T02:45:19;97811.25;;;19.88;62.01
49949;BME280;35840;45.982;8.890;2022-08-16T02:47:51;97810.22;;;19.97;61.60
49949;BME280;35840;45.982;8.890;2022-08-16T02:50:38;97813.19;;;19.94;61.53
49949;BME280;35840;45.982;8.890;2022-08-16T02:53:25;97811.88;;;19.98;61.65
49949;BME280;35840;45.982;8.890;2022-08-16T02:55:52;97819.06;;;19.96;62.00
49949;BME280;35840;45.982;8.890;2022-08-16T02:58:20;97827.69;;;19.88;62.16
49949;BME280;35840;45.982;8.890;2022-08-16T03:00:53;97813.69;;;19.89;61.88
49949;BME280;35840;45.982;8.890;2022-08-16T03:03:24;97814.66;;;19.88;61.85
49949;BME280;35840;45.982;8.890;2022-08-16T03:05:52;97818.41;;;19.94;61.55
49949;BME280;35840;45.982;8.890;2022-08-16T03:08:22;97825.41;;;19.93;61.21
49949;BME280;35840;45.982;8.890;2022-08-16T03:11:09;97817.09;;;19.73;61.65
49949;BME280;35840;45.982;8.890;2022-08-16T03:13:46;97803.41;;;19.47;62.03
49949;BME280;35840;45.982;8.890;2022-08-16T03:16:17;97811.09;;;19.56;61.94
49949;BME280;35840;45.982;8.890;2022-08-16T03:19:06;97812.69;;;19.57;61.77
49949;BME280;35840;45.982;8.890;2022-08-16T03:21:34;97798.19;;;19.63;62.15
49949;BME280;35840;45.982;8.890;2022-08-16T03:24:07;97798.19;;;19.71;61.71
49949;BME280;35840;45.982;8.890;2022-08-16T03:26:57;97799.31;;;19.77;61.43
49949;BME280;35840;45.982;8.890;2022-08-16T03:29:27;97804.56;;;19.52;62.31
49949;BME280;35840;45.982;8.890;2022-08-16T03:31:57;97790.56;;;19.45;62.69
49949;BME280;35840;45.982;8.890;2022-08-16T03:34:26;97791.03;;;19.57;62.60
49949;BME280;35840;45.982;8.890;2022-08-16T03:36:53;97797.22;;;19.56;62.38
49949;BME280;35840;45.982;8.890;2022-08-16T03:39:21;97779.78;;;19.40;62.25
49949;BME280;35840;45.982;8.890;2022-08-16T03:41:48;97806.50;;;19.50;62.13
49949;BME280;35840;45.982;8.890;2022-08-16T03:44:27;97814.97;;;19.27;62.84
49949;BME280;35840;45.982;8.890;2022-08-16T03:47:16;97813.50;;;19.08;63.02
49949;BME280;35840;45.982;8.890;2022-08-16T03:49:47;97802.56;;;19.05;63.45
49949;BME280;35840;45.982;8.890;2022-08-16T03:52:20;97807.63;;;19.15;63.27
49949;BME280;35840;45.982;8.890;2022-08-16T03:54:51;97815.13;;;19.09;63.40
49949;BME280;35840;45.982;8.890;2022-08-16T03:57:26;97816.25;;;19.07;63.37
49949;BME280;35840;45.982;8.890;2022-08-16T04:00:06;97815.94;;;19.18;63.45
49949;BME280;35840;45.982;8.890;2022-08-16T04:03:03;97806.19;;;19.29;63.32
49949;BME280;35840;45.982;8.890;2022-08-16T04:05:42;97811.06;;;19.32;63.14
49949;BME280;35840;45.982;8.890;2022-08-16T04:08:13;97792.81;;;19.23;62.75
49949;BME280;35840;45.982;8.890;2022-08-16T04:10:57;97819.06;;;19.47;63.00
49949;BME280;35840;45.982;8.890;2022-08-16T04:13:26;97810.25;;;19.48;63.01
49949;BME280;35840;45.982;8.890;2022-08-16T04:16:15;97814.81;;;19.54;62.50
49949;BME280;35840;45.982;8.890;2022-08-16T04:18:58;97815.47;;;19.56;62.48
49949;BME280;35840;45.982;8.890;2022-08-16T04:21:31;97825.91;;;19.56;62.58
49949;BME280;35840;45.982;8.890;2022-08-16T04:24:02;97827.19;;;19.68;62.65
49949;BME280;35840;45.982;8.890;2022-08-16T04:26:34;97825.09;;;19.55;62.81
49949;BME280;35840;45.982;8.890;2022-08-16T04:29:02;97829.16;;;19.50;62.56
49949;BME280;35840;45.982;8.890;2022-08-16T04:31:51;97840.09;;;19.45;62.50
49949;BME280;35840;45.982;8.890;2022-08-16T04:34:28;97842.19;;;19.41;62.58
49949;BME280;35840;45.982;8.890;2022-08-16T04:36:57;97844.44;;;19.36;62.80
49949;BME280;35840;45.982;8.890;2022-08-16T04:39:33;97847.72;;;19.30;63.03
49949;BME280;35840;45.982;8.890;2022-08-16T04:42:15;97839.34;;;19.02;63.18
49949;BME280;35840;45.982;8.890;2022-08-16T04:44:45;97859.25;;;19.19;63.24
49949;BME280;35840;45.982;8.890;2022-08-16T04:47:27;97867.25;;;19.26;62.93
49949;BME280;35840;45.982;8.890;2022-08-16T04:50:13;97865.63;;;19.33;62.87
49949;BME280;35840;45.982;8.890;2022-08-16T04:52:57;97880.63;;;19.31;62.57
49949;BME280;35840;45.982;8.890;2022-08-16T04:55:28;97867.28;;;19.42;62.08
49949;BME280;35840;45.982;8.890;2022-08-16T04:58:04;97871.50;;;19.27;62.60
49949;BME280;35840;45.982;8.890;2022-08-16T05:00:52;97878.03;;;19.31;62.40
49949;BME280;35840;45.982;8.890;2022-08-16T05:03:22;97882.75;;;19.36;62.78
49949;BME280;35840;45.982;8.890;2022-08-16T05:05:51;97883.41;;;19.38;63.02
49949;BME280;35840;45.982;8.890;2022-08-16T05:08:31;97897.44;;;19.45;63.35
49949;BME280;35840;45.982;8.890;2022-08-16T05:11:09;97881.97;;;19.43;63.38
49949;BME280;35840;45.982;8.890;2022-08-16T05:13:41;97895.50;;;19.55;62.64
49949;BME280;35840;45.982;8.890;2022-08-16T05:16:21;97888.81;;;19.61;63.25
49949;BME280;35840;45.982;8.890;2022-08-16T05:19:00;97887.19;;;19.60;63.09
49949;BME280;35840;45.982;8.890;2022-08-16T05:21:41;97888.81;;;19.69;63.60
49949;BME280;35840;45.982;8.890;2022-08-16T05:24:09;97886.84;;;19.71;63.36
49949;BME280;35840;45.982;8.890;2022-08-16T05:26:37;97894.03;;;19.77;63.73
49949;BME280;35840;45.982;8.890;2022-08-16T05:29:08;97887.06;;;19.86;63.62
49949;BME280;35840;45.982;8.890;2022-08-16T05:31:42;97897.34;;;19.96;63.81
49949;BME280;35840;45.982;8.890;2022-08-16T05:34:18;97893.41;;;19.84;63.95
49949;BME280;35840;45.982;8.890;2022-08-16T05:36:50;97897.50;;;19.86;63.60
49949;BME280;35840;45.982;8.890;2022-08-16T05:39:21;97897.63;;;19.93;63.72
49949;BME280;35840;45.982;8.890;2022-08-16T05:41:49;97891.13;;;19.97;64.50
49949;BME280;35840;45.982;8.890;2022-08-16T05:44:20;97887.88;;;20.03;64.68
49949;BME280;35840;45.982;8.890;2022-08-16T05:46:53;97900.25;;;20.09;64.17
49949;BME280;35840;45.982;8.890;2022-08-16T05:49:23;97905.28;;;20.11;64.43
49949;BME280;35840;45.982;8.890;2022-08-16T05:52:10;97900.88;;;20.20;63.43
49949;BME280;35840;45.982;8.890;2022-08-16T05:54:46;97893.38;;;20.17;62.93
49949;BME280;35840;45.982;8.890;2022-08-16T05:57:29;97895.50;;;20.21;62.92
49949;BME280;35840;45.982;8.890;2022-08-16T06:00:00;97896.78;;;20.25;63.55
49949;BME280;35840;45.982;8.890;2022-08-16T06:02:37;97898.91;;;20.30;64.27
49949;BME280;35840;45.982;8.890;2022-08-16T06:05:14;97899.56;;;20.24;64.58
49949;BME280;35840;45.982;8.890;2022-08-16T06:07:42;97892.72;;;20.23;65.17
49949;BME280;35840;45.982;8.890;2022-08-16T06:10:21;97908.53;;;20.29;64.60
49949;BME280;35840;45.982;8.890;2022-08-16T06:13:01;97907.56;;;20.30;64.74
49949;BME280;35840;45.982;8.890;2022-08-16T06:15:28;97918.47;;;20.42;64.71
49949;BME280;35840;45.982;8.890;2022-08-16T06:17:57;97912.59;;;20.49;64.07
49949;BME280;35840;45.982;8.890;2022-08-16T06:20:28;97905.72;;;20.56;63.84
49949;BME280;35840;45.982;8.890;2022-08-16T06:23:10;97906.69;;;20.55;63.69
49949;BME280;35840;45.982;8.890;2022-08-16T06:26:03;97901.63;;;20.53;64.63
49949;BME280;35840;45.982;8.890;2022-08-16T06:28:36;97911.56;;;20.66;63.14
49949;BME280;35840;45.982;8.890;2022-08-16T06:31:11;97907.97;;;20.59;64.35
49949;BME280;35840;45.982;8.890;2022-08-16T06:33:42;97913.38;;;20.57;64.15
49949;BME280;35840;45.982;8.890;2022-08-16T06:36:12;97909.63;;;20.60;64.52
49949;BME280;35840;45.982;8.890;2022-08-16T06:38:46;97911.22;;;20.61;64.29
49949;BME280;35840;45.982;8.890;2022-08-16T06:41:57;97914.34;;;20.64;63.16
49949;BME280;35840;45.982;8.890;2022-08-16T06:44:50;97915.66;;;20.69;62.75
49949;BME280;35840;45.982;8.890;2022-08-16T06:47:31;97903.06;;;20.72;61.15
49949;BME280;35840;45.982;8.890;2022-08-16T06:50:18;97913.84;;;20.69;62.03
49949;BME280;35840;45.982;8.890;2022-08-16T06:52:56;97914.00;;;20.76;60.78
49949;BME280;35840;45.982;8.890;2022-08-16T06:55:28;97911.53;;;20.83;61.09
49949;BME280;35840;45.982;8.890;2022-08-16T06:58:04;97914.44;;;20.88;61.60
49949;BME280;35840;45.982;8.890;2022-08-16T07:00:50;97917.00;;;20.96;60.90
49949;BME280;35840;45.982;8.890;2022-08-16T07:03:17;97908.53;;;20.94;62.14
49949;BME280;35840;45.982;8.890;2022-08-16T07:05:55;97903.59;;;20.99;61.99
49949;BME280;35840;45.982;8.890;2022-08-16T07:08:31;97914.53;;;21.03;62.64
49949;BME280;35840;45.982;8.890;2022-08-16T07:10:58;97910.25;;;21.10;61.84
49949;BME280;35840;45.982;8.890;2022-08-16T07:13:28;97920.84;;;21.17;62.00
49949;BME280;35840;45.982;8.890;2022-08-16T07:16:17;97916.56;;;21.24;59.31
49949;BME280;35840;45.982;8.890;2022-08-16T07:18:47;97915.56;;;21.25;61.47
49949;BME280;35840;45.982;8.890;2022-08-16T07:21:26;97926.19;;;21.23;61.99
49949;BME280;35840;45.982;8.890;2022-08-16T07:24:12;97928.97;;;21.22;61.46
49949;BME280;35840;45.982;8.890;2022-08-16T07:27:03;97924.69;;;21.29;62.14
49949;BME280;35840;45.982;8.890;2022-08-16T07:29:36;97924.03;;;21.35;60.62
49949;BME280;35840;45.982;8.890;2022-08-16T07:32:07;97921.34;;;21.43;60.49
49949;BME280;35840;45.982;8.890;2022-08-16T07:34:34;97920.47;;;21.51;59.57
49949;BME280;35840;45.982;8.890;2022-08-16T07:37:14;97923.25;;;21.58;59.21
49949;BME280;35840;45.982;8.890;2022-08-16T07:40:04;97919.94;;;21.64;59.57
49949;BME280;35840;45.982;8.890;2022-08-16T07:42:39;97915.28;;;21.74;59.59
49949;BME280;35840;45.982;8.890;2022-08-16T07:45:07;97920.44;;;21.82;59.79
49949;BME280;35840;45.982;8.890;2022-08-16T07:47:39;97923.19;;;21.89;59.35
49949;BME280;35840;45.982;8.890;2022-08-16T07:50:09;97926.44;;;21.91;59.16
49949;BME280;35840;45.982;8.890;2022-08-16T07:52:56;97923.94;;;21.98;58.97
49949;BME280;35840;45.982;8.890;2022-08-16T07:55:25;97928.13;;;22.07;58.57
49949;BME280;35840;45.982;8.890;2022-08-16T07:57:53;97930.00;;;22.13;58.61
49949;BME280;35840;45.982;8.890;2022-08-16T08:00:27;97924.78;;;22.13;58.38
49949;BME280;35840;45.982;8.890;2022-08-16T08:02:56;97931.84;;;22.13;57.80
49949;BME280;35840;45.982;8.890;2022-08-16T08:05:28;97925.41;;;22.15;58.34
49949;BME280;35840;45.982;8.890;2022-08-16T08:08:04;97919.66;;;22.20;57.41
49949;BME280;35840;45.982;8.890;2022-08-16T08:10:37;97927.94;;;22.24;57.91
49949;BME280;35840;45.982;8.890;2022-08-16T08:13:04;97917.47;;;22.24;57.23
49949;BME280;35840;45.982;8.890;2022-08-16T08:15:33;97915.31;;;22.27;57.12
49949;BME280;35840;45.982;8.890;2022-08-16T08:18:03;97920.38;;;22.29;56.31
49949;BME280;35840;45.982;8.890;2022-08-16T08:20:50;97914.44;;;22.35;54.26
49949;BME280;35840;45.982;8.890;2022-08-16T08:23:25;97914.44;;;22.35;53.06
49949;BME280;35840;45.982;8.890;2022-08-16T08:25:53;97910.84;;;22.36;53.60
49949;BME280;35840;45.982;8.890;2022-08-16T08:28:26;97921.06;;;22.46;53.59
49949;BME280;35840;45.982;8.890;2022-08-16T08:31:05;97916.44;;;22.48;55.81
49949;BME280;35840;45.982;8.890;2022-08-16T08:33:37;97909.75;;;22.45;54.49
49949;BME280;35840;45.982;8.890;2022-08-16T08:36:09;97907.06;;;22.53;54.68
49949;BME280;35840;45.982;8.890;2022-08-16T08:38:48;97904.19;;;22.48;54.47
49949;BME280;35840;45.982;8.890;2022-08-16T08:41:17;97910.03;;;22.50;54.38
49949;BME280;35840;45.982;8.890;2022-08-16T08:43:54;97903.44;;;22.55;53.84
49949;BME280;35840;45.982;8.890;2022-08-16T08:46:22;97901.44;;;22.57;53.42
49949;BME280;35840;45.982;8.890;2022-08-16T08:48:53;97892.31;;;22.67;53.73
49949;BME280;35840;45.982;8.890;2022-08-16T08:51:33;97905.25;;;22.84;52.04
49949;BME280;35840;45.982;8.890;2022-08-16T08:54:06;97906.84;;;22.85;51.08
49949;BME280;35840;45.982;8.890;2022-08-16T08:56:37;97906.50;;;22.88;50.96
49949;BME280;35840;45.982;8.890;2022-08-16T08:59:25;97903.53;;;22.91;49.92
49949;BME280;35840;45.982;8.890;2022-08-16T09:01:53;97895.19;;;23.02;52.64
49949;BME280;35840;45.982;8.890;2022-08-16T09:04:27;97897.84;;;23.09;52.90
49949;BME280;35840;45.982;8.890;2022-08-16T09:06:55;97907.28;;;23.18;51.11
49949;BME280;35840;45.982;8.890;2022-08-16T09:09:29;97902.66;;;23.20;51.06
49949;BME280;35840;45.982;8.890;2022-08-16T09:12:01;97900.28;;;23.26;51.59
49949;BME280;35840;45.982;8.890;2022-08-16T09:14:42;97894.56;;;23.37;51.68
49949;BME280;35840;45.982;8.890;2022-08-16T09:17:17;97896.09;;;23.46;52.18
49949;BME280;35840;45.982;8.890;2022-08-16T09:20:05;97901.81;;;23.57;51.40
49949;BME280;35840;45.982;8.890;2022-08-16T09:22:33;97891.44;;;23.70;51.91
49949;BME280;35840;45.982;8.890;2022-08-16T09:25:00;97889.88;;;23.76;50.85
49949;BME280;35840;45.982;8.890;2022-08-16T09:27:39;97898.00;;;23.81;49.74
49949;BME280;35840;45.982;8.890;2022-08-16T09:30:28;97894.44;;;23.88;50.26
49949;BME280;35840;45.982;8.890;2022-08-16T09:33:01;97895.56;;;24.01;50.85
49949;BME280;35840;45.982;8.890;2022-08-16T09:35:29;97892.16;;;24.07;50.92
49949;BME280;35840;45.982;8.890;2022-08-16T09:37:56;97891.09;;;24.23;51.06
49949;BME280;35840;45.982;8.890;2022-08-16T09:40:26;97885.09;;;24.36;49.93
49949;BME280;35840;45.982;8.890;2022-08-16T09:43:10;97898.53;;;24.54;51.87
49949;BME280;35840;45.982;8.890;2022-08-16T09:45:58;97898.16;;;24.57;49.15
49949;BME280;35840;45.982;8.890;2022-08-16T09:48:25;97890.25;;;24.57;49.04
49949;BME280;35840;45.982;8.890;2022-08-16T09:51:10;97894.28;;;24.53;49.42
49949;BME280;35840;45.982;8.890;2022-08-16T09:53:38;97897.38;;;24.64;48.70
49949;BME280;35840;45.982;8.890;2022-08-16T09:56:17;97889.97;;;24.74;49.62
49949;BME280;35840;45.982;8.890;2022-08-16T09:58:45;97892.66;;;24.87;49.80
49949;BME280;35840;45.982;8.890;2022-08-16T10:01:33;97893.25;;;24.83;48.55
49949;BME280;35840;45.982;8.890;2022-08-16T10:04:03;97891.25;;;24.91;50.25
49949;BME280;35840;45.982;8.890;2022-08-16T10:06:53;97902.47;;;25.14;47.92
49949;BME280;35840;45.982;8.890;2022-08-16T10:09:24;97891.91;;;25.07;48.04
49949;BME280;35840;45.982;8.890;2022-08-16T10:12:10;97893.47;;;24.95;47.74
49949;BME280;35840;45.982;8.890;2022-08-16T10:14:56;97891.75;;;25.15;51.31
49949;BME280;35840;45.982;8.890;2022-08-16T10:17:23;97881.03;;;25.17;50.35
49949;BME280;35840;45.982;8.890;2022-08-16T10:19:50;97882.22;;;25.14;48.56
49949;BME280;35840;45.982;8.890;2022-08-16T10:22:18;97882.63;;;25.11;49.04
49949;BME280;35840;45.982;8.890;2022-08-16T10:24:48;97879.41;;;25.22;49.55
49949;BME280;35840;45.982;8.890;2022-08-16T10:27:26;97877.38;;;25.24;49.67
49949;BME280;35840;45.982;8.890;2022-08-16T10:30:14;97868.50;;;25.25;50.88
49949;BME280;35840;45.982;8.890;2022-08-16T10:32:53;97877.84;;;25.41;50.88
49949;BME280;35840;45.982;8.890;2022-08-16T10:35:20;97869.94;;;25.41;48.20
49949;BME280;35840;45.982;8.890;2022-08-16T10:37:48;97877.06;;;25.48;50.42
49949;BME280;35840;45.982;8.890;2022-08-16T10:40:19;97866.94;;;25.51;49.88
49949;BME280;35840;45.982;8.890;2022-08-16T10:42:57;97860.88;;;25.57;50.84
49949;BME280;35840;45.982;8.890;2022-08-16T10:45:28;97868.56;;;25.72;50.47
49949;BME280;35840;45.982;8.890;2022-08-16T10:48:04;97862.88;;;25.75;51.91
49949;BME280;35840;45.982;8.890;2022-08-16T10:50:52;97859.84;;;25.78;50.68
49949;BME280;35840;45.982;8.890;2022-08-16T10:53:18;97863.31;;;25.79;50.82
49949;BME280;35840;45.982;8.890;2022-08-16T10:55:47;97860.69;;;25.79;48.32
49949;BME280;35840;45.982;8.890;2022-08-16T10:58:23;97856.81;;;25.75;47.12
49949;BME280;35840;45.982;8.890;2022-08-16T11:01:02;97856.44;;;25.91;50.43
49949;BME280;35840;45.982;8.890;2022-08-16T11:03:49;97827.88;;;25.75;46.18
49949;BME280;35840;45.982;8.890;2022-08-16T11:06:20;97848.91;;;25.88;47.20
49949;BME280;35840;45.982;8.890;2022-08-16T11:08:53;97855.81;;;25.89;47.02
49949;BME280;35840;45.982;8.890;2022-08-16T11:11:40;97858.47;;;26.03;49.08
49949;BME280;35840;45.982;8.890;2022-08-16T11:14:27;97855.59;;;26.24;50.77
49949;BME280;35840;45.982;8.890;2022-08-16T11:16:54;97862.22;;;26.47;48.26
49949;BME280;35840;45.982;8.890;2022-08-16T11:19:37;97851.28;;;26.43;47.74
49949;BME280;35840;45.982;8.890;2022-08-16T11:22:27;97863.66;;;26.36;46.10
49949;BME280;35840;45.982;8.890;2022-08-16T11:25:17;97860.84;;;26.31;46.81
49949;BME280;35840;45.982;8.890;2022-08-16T11:28:05;97860.75;;;26.58;49.09
49949;BME280;35840;45.982;8.890;2022-08-16T11:30:32;97860.09;;;26.76;48.46
49949;BME280;35840;45.982;8.890;2022-08-16T11:33:05;97863.88;;;26.93;47.82
49949;BME280;35840;45.982;8.890;2022-08-16T11:35:32;97864.63;;;27.07;47.10
49949;BME280;35840;45.982;8.890;2022-08-16T11:38:21;97863.38;;;27.17;47.49
49949;BME280;35840;45.982;8.890;2022-08-16T11:41:08;97873.75;;;27.05;45.45
49949;BME280;35840;45.982;8.890;2022-08-16T11:43:37;97870.31;;;27.11;47.37
49949;BME280;35840;45.982;8.890;2022-08-16T11:46:09;97877.34;;;27.17;47.55
49949;BME280;35840;45.982;8.890;2022-08-16T11:48:56;97875.34;;;27.19;47.02
49949;BME280;35840;45.982;8.890;2022-08-16T11:51:23;97876.56;;;27.17;47.92
49949;BME280;35840;45.982;8.890;2022-08-16T11:53:50;97873.72;;;27.18;47.02
49949;BME280;35840;45.982;8.890;2022-08-16T11:56:17;97882.22;;;27.20;47.01
49949;BME280;35840;45.982;8.890;2022-08-16T11:59:07;97870.81;;;27.26;47.61
49949;BME280;35840;45.982;8.890;2022-08-16T12:01:34;97878.53;;;27.28;49.93
49949;BME280;35840;45.982;8.890;2022-08-16T12:04:22;97874.38;;;27.45;47.58
49949;BME280;35840;45.982;8.890;2022-08-16T12:06:49;97865.94;;;27.62;49.50
49949;BME280;35840;45.982;8.890;2022-08-16T12:09:20;97867.81;;;27.55;46.78
49949;BME280;35840;45.982;8.890;2022-08-16T12:11:47;97870.06;;;27.51;45.30
49949;BME280;35840;45.982;8.890;2022-08-16T12:14:19;97874.78;;;27.49;46.54
49949;BME280;35840;45.982;8.890;2022-08-16T12:16:50;97879.88;;;27.44;47.27
49949;BME280;35840;45.982;8.890;2022-08-16T12:19:22;97869.13;;;27.39;47.11
49949;BME280;35840;45.982;8.890;2022-08-16T12:22:03;97875.16;;;27.14;46.15
49949;BME280;35840;45.982;8.890;2022-08-16T12:24:43;97872.84;;;26.92;47.12
49949;BME280;35840;45.982;8.890;2022-08-16T12:27:13;97880.00;;;26.78;47.07
49949;BME280;35840;45.982;8.890;2022-08-16T12:29:40;97876.75;;;26.63;46.29
49949;BME280;35840;45.982;8.890;2022-08-16T12:32:07;97861.16;;;26.61;46.30
49949;BME280;35840;45.982;8.890;2022-08-16T12:34:54;97867.44;;;26.74;46.92
49949;BME280;35840;45.982;8.890;2022-08-16T12:37:22;97862.88;;;26.94;45.45
49949;BME280;35840;45.982;8.890;2022-08-16T12:39:52;97855.28;;;27.05;45.83
49949;BME280;35840;45.982;8.890;2022-08-16T12:42:23;97854.22;;;27.19;48.49
49949;BME280;35840;45.982;8.890;2022-08-16T12:45:03;97859.19;;;27.34;48.91
49949;BME280;35840;45.982;8.890;2022-08-16T12:47:30;97847.38;;;27.43;46.22
49949;BME280;35840;45.982;8.890;2022-08-16T12:50:17;97847.66;;;27.60;45.14
49949;BME280;35840;45.982;8.890;2022-08-16T12:52:43;97842.38;;;27.60;48.00
49949;BME280;35840;45.982;8.890;2022-08-16T12:55:19;97837.78;;;27.74;46.11
49949;BME280;35840;45.982;8.890;2022-08-16T12:57:46;97838.75;;;27.80;46.41
49949;BME280;35840;45.982;8.890;2022-08-16T13:00:26;97835.75;;;27.76;46.75
49949;BME280;35840;45.982;8.890;2022-08-16T13:02:59;97831.94;;;27.91;46.13
49949;BME280;35840;45.982;8.890;2022-08-16T13:05:27;97827.00;;;28.01;46.68
49949;BME280;35840;45.982;8.890;2022-08-16T13:07:54;97825.66;;;28.17;46.15
49949;BME280;35840;45.982;8.890;2022-08-16T13:10:26;97831.50;;;28.38;44.94
49949;BME280;35840;45.982;8.890;2022-08-16T13:13:06;97838.13;;;28.47;44.25
49949;BME280;35840;45.982;8.890;2022-08-16T13:15:35;97835.53;;;28.40;44.36
49949;BME280;35840;45.982;8.890;2022-08-16T13:18:21;97824.16;;;28.40;44.78
49949;BME280;35840;45.982;8.890;2022-08-16T13:20:59;97821.44;;;28.46;45.58
49949;BME280;35840;45.982;8.890;2022-08-16T13:23:25;97824.44;;;28.50;45.07
49949;BME280;35840;45.982;8.890;2022-08-16T13:25:53;97812.63;;;28.52;43.82
49949;BME280;35840;45.982;8.890;2022-08-16T13:28:20;97815.50;;;28.70;43.67
49949;BME280;35840;45.982;8.890;2022-08-16T13:30:52;97816.78;;;28.60;41.49
49949;BME280;35840;45.982;8.890;2022-08-16T13:33:27;97821.66;;;28.45;42.93
49949;BME280;35840;45.982;8.890;2022-08-16T13:35:57;97812.03;;;28.50;44.12
49949;BME280;35840;45.982;8.890;2022-08-16T13:38:27;97821.44;;;28.65;44.36
49949;BME280;35840;45.982;8.890;2022-08-16T13:41:07;97807.44;;;28.76;44.07
49949;BME280;35840;45.982;8.890;2022-08-16T13:43:35;97813.13;;;28.61;43.68
49949;BME280;35840;45.982;8.890;2022-08-16T13:46:03;97822.03;;;28.48;42.38